Time;durP1;ratioP1;P1;durP2;ratioP2;P2;SDS_P1;SDS_P2;PMS_P1;PMS_P2;Temp;Humidity;BMP_temperature;BMP_pressure;BME280_temperature;BME280_humidity;BME280_pressure;Samples;Min_cycle;Max_cycle;Signal;HPM_P1;HPM_P2
2024/02/28 00:00:11;;;;;;;0.03;0.03;;;;;;;7.85;100.00;100705.41;6221296;23;20004;-77
2024/02/28 00:02:40;;;;;;;0.00;0.00;;;;;;;7.69;100.00;100689.81;6220896;23;19984;-74
2024/02/28 00:05:05;;;;;;;0.00;0.00;;;;;;;7.84;100.00;100725.53;6223924;23;20105;-74
2024/02/28 00:07:31;;;;;;;0.05;0.05;;;;;;;7.71;100.00;100720.38;6196856;23;20435;-75
2024/02/28 00:09:58;;;;;;;0.00;0.00;;;;;;;7.61;100.00;100720.16;6171557;23;20095;-74
2024/02/28 00:12:26;;;;;;;0.00;0.00;;;;;;;7.57;100.00;100724.41;6221356;23;20016;-74
2024/02/28 00:14:54;;;;;;;0.00;0.00;;;;;;;7.50;100.00;100719.94;6223645;23;19995;-75
2024/02/28 00:17:22;;;;;;;0.00;0.00;;;;;;;7.42;100.00;100714.84;6220132;23;20016;-78
2024/02/28 00:19:48;;;;;;;0.00;0.00;;;;;;;7.63;100.00;100728.91;6223832;23;20443;-76
2024/02/28 00:22:13;;;;;;;0.00;0.00;;;;;;;7.75;100.00;100737.84;6170844;23;19989;-74
2024/02/28 00:24:39;;;;;;;0.00;0.00;;;;;;;7.73;100.00;100712.78;6174246;23;20008;-77
2024/02/28 00:27:04;;;;;;;0.00;0.00;;;;;;;7.85;100.00;100713.56;6196704;23;20443;-75
2024/02/28 00:29:30;;;;;;;0.00;0.00;;;;;;;7.98;100.00;100730.72;6199099;23;19992;-76
2024/02/28 00:31:55;;;;;;;0.00;0.00;;;;;;;7.84;100.00;100714.66;6195098;23;20031;-75
2024/02/28 00:34:20;;;;;;;0.00;0.00;;;;;;;8.01;100.00;100743.84;6222050;23;20006;-75
2024/02/28 00:36:46;;;;;;;0.00;0.00;;;;;;;7.94;100.00;100721.38;6220783;23;20079;-75
2024/02/28 00:39:12;;;;;;;0.00;0.00;;;;;;;7.90;100.00;100710.16;6171380;23;20011;-75
2024/02/28 00:41:37;;;;;;;0.00;0.00;;;;;;;7.92;100.00;100720.78;6170316;23;20008;-75
2024/02/28 00:44:03;;;;;;;0.00;0.00;;;;;;;7.81;100.00;100697.97;6195398;23;19996;-75
2024/02/28 00:46:29;;;;;;;0.10;0.10;;;;;;;7.80;100.00;100691.69;6247798;23;20022;-75
2024/02/28 00:48:54;;;;;;;0.00;0.00;;;;;;;7.94;100.00;100708.56;6220436;23;20007;-75
2024/02/28 00:51:20;;;;;;;0.00;0.00;;;;;;;8.07;100.00;100728.44;6220720;23;20008;-74
2024/02/28 00:54:03;;;;;;;0.00;0.00;;;;;;;7.96;100.00;100706.44;6195936;23;20336;-75
2024/02/28 00:56:28;;;;;;;0.00;0.00;;;;;;;7.89;100.00;100683.97;6249210;23;20041;-75
2024/02/28 00:58:54;;;;;;;0.10;0.10;;;;;;;7.92;100.00;100693.56;6221946;23;20022;-74
2024/02/28 01:01:21;;;;;;;0.00;0.00;;;;;;;7.96;100.00;100697.47;6246923;23;19988;-75
2024/02/28 01:03:47;;;;;;;0.00;0.00;;;;;;;7.93;100.00;100696.03;6197364;23;20014;-75
2024/02/28 01:06:12;;;;;;;0.00;0.00;;;;;;;7.86;100.00;100696.16;6194625;23;20012;-74
2024/02/28 01:08:40;;;;;;;0.00;0.00;;;;;;;7.80;100.00;100688.16;6171192;23;20012;-75
2024/02/28 01:11:05;;;;;;;0.00;0.00;;;;;;;8.03;100.00;100728.09;6221280;23;20008;-74
2024/02/28 01:13:31;;;;;;;0.00;0.00;;;;;;;8.07;100.00;100733.88;6219847;23;20000;-74
2024/02/28 01:15:56;;;;;;;0.00;0.00;;;;;;;8.07;100.00;100725.72;6220462;23;20249;-74
2024/02/28 01:18:22;;;;;;;0.00;0.00;;;;;;;7.89;100.00;100694.06;6220160;23;20046;-76
2024/02/28 01:20:48;;;;;;;0.00;0.00;;;;;;;7.97;100.00;100697.22;6220629;23;20123;-75
2024/02/28 01:23:13;;;;;;;0.00;0.00;;;;;;;7.97;100.00;100696.38;6249368;23;20008;-74
2024/02/28 01:25:38;;;;;;;0.10;0.10;;;;;;;8.03;100.00;100701.69;6221233;23;20038;-75
2024/02/28 01:28:04;;;;;;;0.00;0.00;;;;;;;8.24;100.00;100717.63;6222083;23;20016;-74
2024/02/28 01:30:29;;;;;;;0.00;0.00;;;;;;;8.23;100.00;100715.94;6195011;23;20015;-74
2024/02/28 01:32:55;;;;;;;0.00;0.00;;;;;;;8.34;100.00;100723.25;6196398;23;20071;-75
2024/02/28 01:35:21;;;;;;;0.00;0.00;;;;;;;8.40;100.00;100727.72;6219407;23;20019;-74
2024/02/28 01:37:47;;;;;;;0.00;0.00;;;;;;;8.44;100.00;100728.94;6222491;23;20012;-73
2024/02/28 01:40:13;;;;;;;0.00;0.00;;;;;;;8.44;100.00;100712.56;6221656;23;20490;-76
2024/02/28 01:42:39;;;;;;;0.00;0.00;;;;;;;8.39;100.00;100698.81;6197145;23;19992;-74
2024/02/28 01:45:14;;;;;;;0.00;0.00;;;;;;;8.34;100.00;100679.66;6220159;23;20058;-75
2024/02/28 01:47:42;;;;;;;0.03;0.03;;;;;;;8.41;100.00;100685.78;6221680;23;19999;-74
2024/02/28 01:50:12;;;;;;;0.00;0.00;;;;;;;8.55;100.00;100719.03;6195608;23;20019;-75
2024/02/28 01:52:39;;;;;;;0.00;0.00;;;;;;;8.56;100.00;100726.94;6220989;23;20004;-74
2024/02/28 01:55:06;;;;;;;0.00;0.00;;;;;;;8.46;100.00;100715.88;6193380;23;20011;-75
2024/02/28 01:57:33;;;;;;;0.10;0.10;;;;;;;8.40;100.00;100711.38;6194358;23;20008;-74
2024/02/28 02:00:01;;;;;;;0.00;0.00;;;;;;;8.38;100.00;100711.63;6221029;23;20007;-75
2024/02/28 02:02:31;;;;;;;0.00;0.00;;;;;;;8.35;100.00;100700.38;6196218;23;20390;-75
2024/02/28 02:04:59;;;;;;;0.00;0.00;;;;;;;8.36;100.00;100699.31;6249083;23;20610;-76
2024/02/28 02:07:25;;;;;;;0.00;0.00;;;;;;;8.38;100.00;100691.69;6247772;22;20418;-74
2024/02/28 02:09:52;;;;;;;0.00;0.00;;;;;;;8.52;100.00;100711.34;6219643;23;20004;-74
2024/02/28 02:12:20;;;;;;;0.00;0.00;;;;;;;8.57;100.00;100708.69;6195755;23;20512;-75
2024/02/28 02:14:51;;;;;;;0.00;0.00;;;;;;;8.46;100.00;100688.63;6196531;23;20007;-75
2024/02/28 02:17:18;;;;;;;0.10;0.10;;;;;;;8.44;100.00;100685.31;6194815;23;20070;-74
2024/02/28 02:19:45;;;;;;;0.00;0.00;;;;;;;8.60;100.00;100710.09;6171684;23;20482;-76
2024/02/28 02:22:13;;;;;;;0.00;0.00;;;;;;;8.61;100.00;100720.75;6195017;23;20030;-77
2024/02/28 02:24:39;;;;;;;0.00;0.00;;;;;;;8.59;100.00;100708.47;6194457;23;20008;-75
2024/02/28 02:27:04;;;;;;;0.00;0.00;;;;;;;8.67;100.00;100721.69;6194044;23;20015;-75
2024/02/28 02:29:30;;;;;;;0.00;0.00;;;;;;;8.74;100.00;100722.34;6195115;23;20099;-74
2024/02/28 02:31:56;;;;;;;0.00;0.00;;;;;;;8.63;100.00;100698.69;6220123;23;20000;-74
2024/02/28 02:34:21;;;;;;;0.00;0.00;;;;;;;8.65;100.00;100710.22;6223328;23;19992;-74
2024/02/28 02:36:47;;;;;;;0.00;0.00;;;;;;;8.67;100.00;100719.81;6196112;23;20011;-75
2024/02/28 02:39:12;;;;;;;0.00;0.00;;;;;;;8.62;100.00;100707.97;6195668;23;20069;-75
2024/02/28 02:41:38;;;;;;;0.05;0.05;;;;;;;8.55;100.00;100706.22;6196555;23;20008;-75
2024/02/28 02:44:03;;;;;;;0.00;0.00;;;;;;;8.54;100.00;100695.56;6220889;23;20019;-75
2024/02/28 02:46:29;;;;;;;0.00;0.00;;;;;;;8.61;100.00;100718.03;6220444;23;20014;-75
2024/02/28 02:48:55;;;;;;;0.00;0.00;;;;;;;8.62;100.00;100718.88;6194684;23;20031;-75
2024/02/28 02:51:23;;;;;;;0.00;0.00;;;;;;;8.66;100.00;100714.56;6197511;23;20431;-75
2024/02/28 02:53:49;;;;;;;0.00;0.00;;;;;;;8.65;100.00;100713.75;6219808;23;20004;-75
2024/02/28 02:56:22;;;;;;;0.00;0.00;;;;;;;8.64;100.00;100703.09;6170590;23;20435;-75
2024/02/28 02:58:47;;;;;;;0.00;0.00;;;;;;;8.50;100.00;100687.06;6174240;23;20018;-76
2024/02/28 03:01:12;;;;;;;0.00;0.00;;;;;;;8.71;100.00;100717.41;6168771;23;20031;-75
2024/02/28 03:03:38;;;;;;;0.00;0.00;;;;;;;8.76;100.00;100731.13;6195843;23;20412;-76
2024/02/28 03:06:05;;;;;;;0.00;0.00;;;;;;;8.78;100.00;100723.50;6196253;23;19992;-75
2024/02/28 03:08:30;;;;;;;0.10;0.10;;;;;;;8.79;100.00;100722.44;6248885;23;19996;-76
2024/02/28 03:10:56;;;;;;;0.00;0.00;;;;;;;8.77;100.00;100724.59;6220266;23;20099;-75
2024/02/28 03:13:22;;;;;;;0.10;0.10;;;;;;;8.67;100.00;100721.69;6247524;23;20036;-74
2024/02/28 03:15:48;;;;;;;0.00;0.00;;;;;;;8.59;100.00;100708.47;6220362;22;20012;-75
2024/02/28 03:18:13;;;;;;;0.00;0.00;;;;;;;8.49;100.00;100693.56;6197715;23;20066;-74
2024/02/28 03:20:39;;;;;;;0.00;0.00;;;;;;;8.65;100.00;100716.47;6217857;23;20315;-76
2024/02/28 03:23:06;;;;;;;0.00;0.00;;;;;;;8.44;100.00;100677.16;6199433;23;20008;-76
2024/02/28 03:25:32;;;;;;;0.00;0.00;;;;;;;8.59;100.00;100694.84;6220260;23;20087;-76
2024/02/28 03:27:58;;;;;;;0.00;0.00;;;;;;;8.77;100.00;100718.31;6248830;23;20004;-76
2024/02/28 03:30:24;;;;;;;0.00;0.00;;;;;;;8.79;100.00;100717.00;6220035;23;20015;-76
2024/02/28 03:32:49;;;;;;;0.03;0.03;;;;;;;8.72;100.00;100699.97;6221726;23;20015;-75
2024/02/28 03:35:14;;;;;;;0.00;0.00;;;;;;;8.71;100.00;100690.13;6219842;23;20023;-76
2024/02/28 03:37:40;;;;;;;0.00;0.00;;;;;;;8.77;100.00;100710.94;6219198;23;20031;-76
2024/02/28 03:40:06;;;;;;;0.00;0.00;;;;;;;8.67;100.00;100695.25;6171053;23;20423;-76
2024/02/28 03:42:32;;;;;;;0.00;0.00;;;;;;;8.72;100.00;100708.16;6194311;23;20010;-75
2024/02/28 03:44:57;;;;;;;0.10;0.10;;;;;;;8.70;100.00;100708.41;6172005;23;20008;-76
2024/02/28 03:47:24;;;;;;;0.10;0.10;;;;;;;8.63;100.00;100693.25;6194978;23;20015;-76
2024/02/28 03:49:49;;;;;;;0.00;0.00;;;;;;;8.73;100.00;100704.31;6247978;23;20004;-76
2024/02/28 03:52:14;;;;;;;0.10;0.10;;;;;;;8.70;100.00;100710.28;6194752;23;20008;-75
2024/02/28 03:54:43;;;;;;;0.00;0.00;;;;;;;8.72;100.00;100703.50;6192580;23;20016;-77
2024/02/28 03:57:09;;;;;;;0.00;0.00;;;;;;;8.64;100.00;100700.38;6194310;23;20004;-76
2024/02/28 03:59:34;;;;;;;0.00;0.00;;;;;;;8.51;100.00;100686.00;6191920;23;20015;-78
2024/02/28 04:02:07;;;;;;;0.00;0.00;;;;;;;8.62;100.00;100703.34;6196994;23;20431;-78
2024/02/28 04:04:35;;;;;;;0.00;0.00;;;;;;;8.44;100.00;100679.88;6218217;23;20082;-77
2024/02/28 04:07:00;;;;;;;0.00;0.00;;;;;;;8.63;100.00;100715.06;6221670;23;20015;-77
2024/02/28 04:09:28;;;;;;;0.00;0.00;;;;;;;8.41;100.00;100668.59;6219884;23;20008;-77
2024/02/28 04:11:54;;;;;;;0.00;0.00;;;;;;;8.62;100.00;100694.34;6222091;23;19996;-77
2024/02/28 04:14:19;;;;;;;0.00;0.00;;;;;;;8.56;100.00;100683.34;6223465;23;20315;-78
2024/02/28 04:16:45;;;;;;;0.00;0.00;;;;;;;8.60;100.00;100694.59;6194392;23;20020;-78
2024/02/28 04:19:11;;;;;;;0.00;0.00;;;;;;;8.65;100.00;100702.03;6223316;23;19990;-77
2024/02/28 04:21:39;;;;;;;0.00;0.00;;;;;;;8.60;100.00;100693.75;6221824;23;20000;-78
2024/02/28 04:24:06;;;;;;;0.00;0.00;;;;;;;8.49;100.00;100688.13;6196749;23;20004;-77
2024/02/28 04:26:31;;;;;;;0.00;0.00;;;;;;;8.43;100.00;100697.25;6196790;23;20011;-77
2024/02/28 04:29:02;;;;;;;0.00;0.00;;;;;;;8.12;100.00;100674.06;6221112;23;20008;-76
2024/02/28 04:31:30;;;;;;;0.00;0.00;;;;;;;7.89;100.00;100664.09;6222663;23;20000;-77
2024/02/28 04:33:55;;;;;;;0.00;0.00;;;;;;;7.76;100.00;100674.19;6246072;23;19993;-77
2024/02/28 04:36:21;;;;;;;0.00;0.00;;;;;;;7.62;100.00;100678.25;6196802;23;20449;-76
2024/02/28 04:38:46;;;;;;;0.10;0.10;;;;;;;7.49;100.00;100674.72;6219967;23;20363;-76
2024/02/28 04:41:12;;;;;;;0.00;0.00;;;;;;;7.40;100.00;100672.59;6197984;23;20008;-75
2024/02/28 04:43:43;;;;;;;0.00;0.00;;;;;;;7.28;100.00;100661.75;6198831;23;20026;-76
2024/02/28 04:46:10;;;;;;;0.00;0.00;;;;;;;7.13;100.00;100648.63;6221147;23;19997;-77
2024/02/28 04:48:36;;;;;;;0.00;0.00;;;;;;;7.22;100.00;100663.53;6222803;23;20084;-77
2024/02/28 04:51:02;;;;;;;0.00;0.00;;;;;;;7.10;100.00;100649.94;6172426;23;20435;-77
2024/02/28 04:53:28;;;;;;;0.00;0.00;;;;;;;7.16;100.00;100669.91;6223853;23;20040;-78
2024/02/28 04:55:53;;;;;;;0.00;0.00;;;;;;;7.11;100.00;100676.06;6220217;23;19996;-78
2024/02/28 04:58:19;;;;;;;0.00;0.00;;;;;;;6.99;100.00;100665.19;6196960;23;20481;-76
2024/02/28 05:00:44;;;;;;;0.00;0.00;;;;;;;6.90;100.00;100653.00;6196349;23;20012;-75
2024/02/28 05:03:10;;;;;;;0.00;0.00;;;;;;;6.93;100.00;100659.88;6221261;23;20305;-75
2024/02/28 05:05:35;;;;;;;0.00;0.00;;;;;;;6.92;100.00;100664.47;6222128;23;20003;-75
2024/02/28 05:08:01;;;;;;;0.00;0.00;;;;;;;6.84;100.00;100639.53;6197190;23;20056;-74
2024/02/28 05:10:26;;;;;;;0.00;0.00;;;;;;;6.80;100.00;100645.44;6195763;23;20012;-74
2024/02/28 05:12:51;;;;;;;0.10;0.10;;;;;;;6.80;100.00;100642.72;6196076;23;20012;-74
2024/02/28 05:15:17;;;;;;;0.00;0.00;;;;;;;6.82;100.00;100653.38;6195661;23;20012;-75
2024/02/28 05:17:42;;;;;;;0.00;0.00;;;;;;;6.85;100.00;100652.03;6168410;23;20078;-75
2024/02/28 05:20:09;;;;;;;0.00;0.00;;;;;;;6.85;100.00;100652.03;6173114;23;20012;-76
2024/02/28 05:22:34;;;;;;;0.00;0.00;;;;;;;6.84;100.00;100643.06;6196577;23;20015;-76
2024/02/28 05:25:00;;;;;;;0.00;0.00;;;;;;;6.74;100.00;100613.75;6222532;23;20009;-75
2024/02/28 05:27:25;;;;;;;0.00;0.00;;;;;;;6.72;100.00;100620.50;6196261;23;20095;-75
2024/02/28 05:29:51;;;;;;;0.00;0.00;;;;;;;6.78;100.00;100636.69;6196577;23;20034;-75
2024/02/28 05:32:23;;;;;;;0.00;0.00;;;;;;;6.78;100.00;100636.69;6173611;23;20461;-76
2024/02/28 05:34:49;;;;;;;0.00;0.00;;;;;;;6.66;100.00;100616.84;6172532;23;20011;-75
2024/02/28 05:37:17;;;;;;;0.00;0.00;;;;;;;6.73;100.00;100627.59;6173478;23;20016;-75
2024/02/28 05:39:44;;;;;;;0.00;0.00;;;;;;;6.75;100.00;100623.56;6218260;23;20012;-76
2024/02/28 05:42:10;;;;;;;0.00;0.00;;;;;;;6.74;100.00;100621.91;6172944;23;20431;-77
2024/02/28 05:44:35;;;;;;;0.00;0.00;;;;;;;6.74;100.00;100624.63;6221115;23;20012;-75
2024/02/28 05:47:01;;;;;;;0.03;0.03;;;;;;;6.75;100.00;100626.28;6171965;23;20506;-75
2024/02/28 05:49:26;;;;;;;0.00;0.00;;;;;;;6.75;100.00;100626.28;6197859;23;20381;-76
2024/02/28 05:51:53;;;;;;;0.00;0.00;;;;;;;6.75;100.00;100631.72;6197637;23;20062;-76
2024/02/28 05:54:19;;;;;;;0.00;0.00;;;;;;;6.65;100.00;100620.59;6198119;23;20027;-77
2024/02/28 05:56:44;;;;;;;0.00;0.00;;;;;;;6.42;100.00;100607.81;6222725;23;20015;-74
2024/02/28 05:59:10;;;;;;;0.00;0.00;;;;;;;6.48;100.00;100625.91;6222674;23;20477;-76
2024/02/28 06:01:40;;;;;;;0.00;0.00;;;;;;;6.57;100.00;100643.53;6196067;23;20039;-76
2024/02/28 06:04:05;;;;;;;0.10;0.10;;;;;;;6.30;100.00;100607.81;6196461;23;20038;-76
2024/02/28 06:06:31;;;;;;;0.00;0.00;;;;;;;6.38;100.00;100620.22;6222021;23;19999;-74
2024/02/28 06:08:56;;;;;;;0.00;0.00;;;;;;;6.39;100.00;100617.25;6246840;23;20082;-76
2024/02/28 06:11:22;;;;;;;0.00;0.00;;;;;;;6.31;100.00;100609.47;6197483;23;20344;-76
2024/02/28 06:13:49;;;;;;;0.00;0.00;;;;;;;6.32;100.00;100627.41;6195963;23;20016;-76
2024/02/28 06:16:18;;;;;;;0.00;0.00;;;;;;;6.34;100.00;100627.16;6221373;23;20023;-75
2024/02/28 06:18:43;;;;;;;0.10;0.10;;;;;;;6.34;100.00;100628.00;6220540;23;19999;-76
2024/02/28 06:21:13;;;;;;;0.10;0.10;;;;;;;6.25;100.00;100607.66;6248071;23;20008;-77
2024/02/28 06:23:39;;;;;;;0.00;0.00;;;;;;;6.30;100.00;100607.81;6247553;23;20004;-75
2024/02/28 06:26:14;;;;;;;0.00;0.00;;;;;;;6.26;100.00;100601.19;6219674;23;20529;-76
2024/02/28 06:29:01;;;;;;;0.00;0.00;;;;;;;6.23;100.00;100598.94;6221970;23;20114;-76
2024/02/28 06:31:29;;;;;;;0.00;0.00;;;;;;;6.39;100.00;100625.41;6220626;23;20000;-76
2024/02/28 06:33:57;;;;;;;0.00;0.00;;;;;;;6.38;100.00;100626.50;6221552;23;20030;-76
2024/02/28 06:36:23;;;;;;;0.00;0.00;;;;;;;6.35;100.00;100610.66;6171171;23;20039;-75
2024/02/28 06:38:51;;;;;;;0.00;0.00;;;;;;;6.36;100.00;100612.28;6222529;23;20008;-77
2024/02/28 06:41:16;;;;;;;0.00;0.00;;;;;;;6.32;100.00;100604.84;6195295;23;20000;-76
2024/02/28 06:43:49;;;;;;;0.00;0.00;;;;;;;6.32;100.00;100611.09;6222247;23;20344;-76
2024/02/28 06:46:14;;;;;;;0.00;0.00;;;;;;;6.20;100.00;100607.56;6224282;23;20002;-77
2024/02/28 06:48:40;;;;;;;0.00;0.00;;;;;;;6.24;100.00;100619.59;6199876;23;20032;-77
2024/02/28 06:51:06;;;;;;;0.00;0.00;;;;;;;6.10;100.00;100598.09;6224731;23;19996;-78
2024/02/28 06:53:31;;;;;;;0.00;0.00;;;;;;;6.16;100.00;100600.91;6250792;23;20301;-76
2024/02/28 06:55:56;;;;;;;0.00;0.00;;;;;;;6.16;100.00;100603.63;6223359;23;20005;-78
2024/02/28 06:58:24;;;;;;;0.00;0.00;;;;;;;6.13;100.00;100601.38;6249091;23;20008;-77
2024/02/28 07:00:57;;;;;;;0.00;0.00;;;;;;;6.06;100.00;100593.31;6224388;23;20019;-76
2024/02/28 07:03:23;;;;;;;0.00;0.00;;;;;;;6.19;100.00;100622.19;6198151;23;20016;-79
2024/02/28 07:05:48;;;;;;;0.00;0.00;;;;;;;6.23;100.00;100623.38;6246645;23;20327;-76
2024/02/28 07:08:14;;;;;;;0.00;0.00;;;;;;;6.21;100.00;100617.34;6173893;23;20316;-77
2024/02/28 07:10:43;;;;;;;0.00;0.00;;;;;;;6.18;100.00;100604.25;6223354;23;20087;-81
2024/02/28 07:13:08;;;;;;;0.00;0.00;;;;;;;6.37;100.00;100629.44;6200891;23;20012;-77
2024/02/28 07:15:34;;;;;;;0.00;0.00;;;;;;;6.35;100.00;100615.25;6198363;23;20008;-79
2024/02/28 07:17:59;;;;;;;0.00;0.00;;;;;;;6.40;100.00;100618.09;6222364;23;20138;-76
2024/02/28 07:20:25;;;;;;;0.00;0.00;;;;;;;6.59;100.00;100635.16;6222491;23;20011;-78
2024/02/28 07:22:50;;;;;;;0.00;0.00;;;;;;;6.52;100.00;100616.22;6198569;23;20046;-78
2024/02/28 07:25:16;;;;;;;0.00;0.00;;;;;;;6.70;100.00;100617.19;6173662;23;20088;-77
2024/02/28 07:27:49;;;;;;;0.00;0.00;;;;;;;6.54;100.00;100586.09;6221093;23;20011;-76
2024/02/28 07:30:17;;;;;;;0.00;0.00;;;;;;;6.59;100.00;100594.38;6225653;23;20000;-77
2024/02/28 07:32:43;;;;;;;0.00;0.00;;;;;;;6.74;100.00;100607.50;6222255;23;20000;-77
2024/02/28 07:35:08;;;;;;;0.10;0.10;;;;;;;6.68;100.00;100582.09;6222875;23;20009;-75
2024/02/28 07:37:34;;;;;;;0.10;0.10;;;;;;;6.80;100.00;100591.09;6250656;23;20041;-79
2024/02/28 07:40:07;;;;;;;0.00;0.00;;;;;;;6.97;100.00;100606.69;6224581;23;20048;-79
2024/02/28 07:42:33;;;;;;;0.00;0.00;;;;;;;7.10;100.00;100614.56;6200527;23;20004;-76
2024/02/28 07:44:58;;;;;;;0.00;0.00;;;;;;;7.12;100.00;100608.91;6251818;23;20057;-75
2024/02/28 07:47:24;;;;;;;0.00;0.00;;;;;;;7.24;100.00;100614.31;6250960;23;20004;-75
2024/02/28 07:49:53;;;;;;;0.10;0.10;;;;;;;7.41;100.00;100620.66;6222195;23;20000;-75
2024/02/28 07:52:27;;;;;;;0.00;0.00;;;;;;;7.58;100.00;100622.63;6223171;23;20019;-75
2024/02/28 07:54:52;;;;;;;0.00;0.00;;;;;;;7.82;100.00;100645.97;6249240;23;20000;-75
2024/02/28 07:57:18;;;;;;;0.00;0.00;;;;;;;7.92;100.00;100642.66;6223021;23;20003;-74
2024/02/28 07:59:44;;;;;;;0.05;0.05;;;;;;;8.04;100.00;100637.16;6194504;23;20020;-76
2024/02/28 08:02:11;;;;;;;0.00;0.00;;;;;;;8.14;100.00;100648.22;6224085;23;20007;-73
2024/02/28 08:04:37;;;;;;;0.00;0.00;;;;;;;8.16;100.00;100646.09;6193289;23;20501;-75
2024/02/28 08:07:05;;;;;;;0.00;0.00;;;;;;;8.25;100.00;100659.31;6197948;23;20008;-78
2024/02/28 08:09:33;;;;;;;0.10;0.10;;;;;;;8.20;100.00;100647.25;6249503;23;20007;-75
2024/02/28 08:11:58;;;;;;;0.00;0.00;;;;;;;8.25;100.00;100632.06;6172237;23;20423;-76
2024/02/28 08:14:26;;;;;;;0.00;0.00;;;;;;;8.37;100.00;100646.47;6221179;23;20011;-74
2024/02/28 08:16:56;;;;;;;0.10;0.10;;;;;;;8.58;100.00;100674.91;6194457;22;20015;-75
2024/02/28 08:19:21;;;;;;;0.00;0.00;;;;;;;8.62;100.00;100667.09;6196209;23;20331;-74
2024/02/28 08:21:47;;;;;;;0.00;0.00;;;;;;;8.60;100.00;100653.72;6222647;23;20091;-75
2024/02/28 08:24:13;;;;;;;0.00;0.00;;;;;;;8.79;100.00;100670.63;6246887;23;19976;-74
2024/02/28 08:26:40;;;;;;;0.00;0.00;;;;;;;8.71;100.00;100662.88;6246663;23;20017;-74
2024/02/28 08:29:06;;;;;;;0.00;0.00;;;;;;;8.61;100.00;100658.06;6194773;23;20019;-74
2024/02/28 08:31:31;;;;;;;0.00;0.00;;;;;;;8.62;100.00;100653.47;6217323;23;20008;-75
2024/02/28 08:33:57;;;;;;;0.00;0.00;;;;;;;8.52;100.00;100638.56;6196100;23;20004;-73
2024/02/28 08:36:22;;;;;;;0.00;0.00;;;;;;;8.66;100.00;100660.03;6247263;23;20000;-73
2024/02/28 08:38:48;;;;;;;0.00;0.00;;;;;;;8.55;100.00;100648.97;6222595;23;20004;-74
2024/02/28 08:41:14;;;;;;;0.00;0.00;;;;;;;8.52;100.00;100638.56;6221920;23;20019;-74
2024/02/28 08:43:40;;;;;;;0.00;0.00;;;;;;;8.61;100.00;100651.78;6249060;23;20427;-74
2024/02/28 08:46:05;;;;;;;0.00;0.00;;;;;;;8.56;100.00;100647.91;6221314;23;19999;-74
2024/02/28 08:48:42;;;;;;;;;;;;;;;;;;;;;
2024/02/28 08:51:11;;;;;;;0.00;0.00;;;;;;;8.91;100.00;100663.19;6245096;23;20068;-74
2024/02/28 08:53:36;;;;;;;0.00;0.00;;;;;;;9.12;100.00;100679.84;6169227;23;20087;-75
2024/02/28 08:56:02;;;;;;;0.00;0.00;;;;;;;9.02;100.00;100668.78;6246883;22;20586;-74
2024/02/28 08:58:37;;;;;;;0.00;0.00;;;;;;;9.05;100.00;100684.66;6221163;23;20012;-74
2024/02/28 09:01:04;;;;;;;0.00;0.00;;;;;;;8.97;100.00;100666.00;6245627;23;20007;-75
2024/02/28 09:03:35;;;;;;;0.03;0.03;;;;;;;9.07;100.00;100682.53;6249663;23;20034;-75
2024/02/28 09:06:01;;;;;;;0.00;0.00;;;;;;;9.00;100.00;100671.78;6219812;23;20923;-74
2024/02/28 09:08:27;;;;;;;0.00;0.00;;;;;;;9.02;100.00;100660.63;6221141;23;20008;-74
2024/02/28 09:10:52;;;;;;;0.00;0.00;;;;;;;9.09;100.00;100669.44;6196210;23;20099;-73
2024/02/28 09:13:20;;;;;;;0.00;0.00;;;;;;;9.16;100.00;100670.09;6198068;23;20398;-74
2024/02/28 09:15:46;;;;;;;0.05;0.05;;;;;;;9.34;100.00;100698.19;6218962;22;20153;-73
2024/02/28 09:18:28;;;;;;;0.00;0.00;;;;;;;9.20;100.00;100674.00;6219131;23;20439;-74
2024/02/28 09:20:54;;;;;;;0.00;0.00;;;;;;;9.30;100.00;100675.19;6197694;23;20103;-72
2024/02/28 09:23:23;;;;;;;0.00;0.00;;;;;;;9.33;100.00;100655.59;6246702;23;20004;-75
2024/02/28 09:25:51;;;;;;;0.00;0.00;;;;;;;9.64;100.00;100680.56;6218870;23;20003;-74
2024/02/28 09:28:17;;;;;;;0.00;0.00;;;;;;;9.67;100.00;100669.16;6221021;23;20461;-73
2024/02/28 09:30:43;;;;;;;0.00;0.00;;;;;;;9.60;100.00;100653.75;6246268;23;20008;-74
2024/02/28 09:33:08;;;;;;;0.00;0.00;;;;;;;9.58;100.00;100647.75;6194095;23;20040;-75
2024/02/28 09:35:44;;;;;;;0.00;0.00;;;;;;;9.66;99.29;100656.56;6219762;22;20062;-75
2024/02/28 09:38:10;;;;;;;0.10;0.10;;;;;;;9.67;99.51;100660.97;6245168;23;20007;-74
2024/02/28 09:40:36;;;;;;;0.00;0.00;;;;;;;9.70;98.47;100668.66;6220979;23;20498;-72
2024/02/28 09:43:11;;;;;;;0.00;0.00;;;;;;;9.71;98.76;100671.13;6194965;23;20058;-74
2024/02/28 09:45:44;;;;;;;0.00;0.00;;;;;;;9.73;98.39;100658.03;6221203;23;20011;-74
2024/02/28 09:48:11;;;;;;;0.00;0.00;;;;;;;9.93;97.90;100657.44;6197498;23;20012;-73
2024/02/28 09:50:38;;;;;;;0.00;0.00;;;;;;;10.05;97.54;100664.69;6219548;23;20011;-74
2024/02/28 09:53:06;;;;;;;0.00;0.00;;;;;;;10.17;97.08;100657.16;6219459;23;20443;-75
2024/02/28 09:55:32;;;;;;;0.00;0.00;;;;;;;10.30;96.94;100640.31;6221966;23;20008;-73
2024/02/28 09:57:58;;;;;;;0.00;0.00;;;;;;;10.72;96.72;100657.13;6194711;23;20026;-73
2024/02/28 10:00:25;;;;;;;0.00;0.00;;;;;;;10.88;94.74;100645.22;6196507;23;20004;-74
2024/02/28 10:02:51;;;;;;;0.00;0.00;;;;;;;11.05;94.22;100633.28;6218815;23;20368;-73
2024/02/28 10:05:18;;;;;;;0.00;0.00;;;;;;;11.14;93.04;100620.75;6218937;23;20006;-74
2024/02/28 10:07:47;;;;;;;0.00;0.00;;;;;;;11.57;92.90;100639.88;6219420;23;20008;-74
2024/02/28 10:10:12;;;;;;;0.00;0.00;;;;;;;11.66;91.90;100632.78;6218612;23;20331;-74
2024/02/28 10:12:44;;;;;;;0.00;0.00;;;;;;;11.76;91.75;100632.00;6220442;23;20066;-73
2024/02/28 10:15:10;;;;;;;0.00;0.00;;;;;;;11.70;90.73;100596.34;6219512;23;20419;-73
2024/02/28 10:17:36;;;;;;;0.00;0.00;;;;;;;11.94;90.51;100623.28;6220672;23;20027;-73
2024/02/28 10:20:04;;;;;;;0.00;0.00;;;;;;;11.98;89.52;100624.41;6222839;23;20008;-75
2024/02/28 10:22:34;;;;;;;0.00;0.00;;;;;;;11.90;89.09;100633.13;6196237;23;20008;-75
2024/02/28 10:25:00;;;;;;;0.00;0.00;;;;;;;11.82;89.54;100614.47;6220970;23;20064;-74
2024/02/28 10:27:26;;;;;;;0.00;0.00;;;;;;;11.88;89.68;100596.94;6221286;23;19988;-74
2024/02/28 10:29:51;;;;;;;0.00;0.00;;;;;;;11.90;87.81;100611.22;6219630;23;20008;-73
2024/02/28 10:32:19;;;;;;;0.00;0.00;;;;;;;11.73;88.29;100599.66;6194733;23;20008;-74
2024/02/28 10:34:49;;;;;;;0.10;0.10;;;;;;;11.65;88.13;100612.78;6220198;23;20011;-74
2024/02/28 10:37:17;;;;;;;0.00;0.00;;;;;;;11.70;88.28;100629.22;6219310;23;20012;-74
2024/02/28 10:39:52;;;;;;;0.00;0.00;;;;;;;11.36;89.38;100590.50;6170745;23;20513;-74
2024/02/28 10:42:22;;;;;;;0.00;0.00;;;;;;;11.45;89.30;100615.44;6219773;23;20426;-73
2024/02/28 10:44:51;;;;;;;0.00;0.00;;;;;;;11.21;89.04;100626.00;6220357;22;20372;-73
2024/02/28 10:47:20;;;;;;;0.00;0.00;;;;;;;11.09;90.98;100628.94;6220148;23;19996;-75
2024/02/28 10:49:48;;;;;;;0.00;0.00;;;;;;;11.08;92.04;100632.75;6195191;23;20009;-74
2024/02/28 10:52:21;;;;;;;0.00;0.00;;;;;;;10.86;92.59;100602.78;6220219;23;20308;-73
2024/02/28 10:54:56;;;;;;;0.00;0.00;;;;;;;10.77;93.04;100583.31;6220445;23;20407;-73
2024/02/28 10:57:33;;;;;;;0.00;0.00;;;;;;;11.00;93.42;100615.75;6248080;22;20393;-73
2024/02/28 11:00:00;;;;;;;0.10;0.10;;;;;;;10.68;94.04;100574.78;6246416;23;20038;-74
2024/02/28 11:02:26;;;;;;;0.00;0.00;;;;;;;10.86;94.18;100602.78;6246050;23;20004;-73
2024/02/28 11:04:56;;;;;;;0.00;0.00;;;;;;;10.87;94.41;100613.47;6193170;23;20012;-75
2024/02/28 11:07:22;;;;;;;0.00;0.00;;;;;;;10.78;95.30;100595.91;6219860;23;20032;-72
2024/02/28 11:09:48;;;;;;;0.00;0.00;;;;;;;10.85;95.47;100580.09;6220832;23;20031;-73
2024/02/28 11:12:25;;;;;;;0.00;0.00;;;;;;;11.01;95.12;100605.63;6221640;23;19999;-75
2024/02/28 11:15:03;;;;;;;0.10;0.10;;;;;;;10.87;95.07;100597.06;6197008;23;20000;-73
2024/02/28 11:17:29;;;;;;;0.05;0.05;;;;;;;10.81;95.72;100612.59;6221275;22;20012;-74
2024/02/28 11:19:55;;;;;;;0.00;0.00;;;;;;;10.51;95.99;100595.97;6248889;23;20156;-74
2024/02/28 11:22:20;;;;;;;0.00;0.00;;;;;;;10.48;97.65;100621.91;6219521;23;20000;-73
2024/02/28 11:24:48;;;;;;;0.00;0.00;;;;;;;10.34;99.33;100582.44;6195442;23;20378;-74